Time;durP1;ratioP1;P1;durP2;ratioP2;P2;SDS_P1;SDS_P2;PMS_P1;PMS_P2;Temp;Humidity;BMP_temperature;BMP_pressure;BME280_temperature;BME280_humidity;BME280_pressure;Samples;Min_cycle;Max_cycle;Signal;HPM_P1;HPM_P2
2022/07/11 00:00:12;;;;;;;4.22;1.80;;;;;;;;;;5075835;28;20592;-43
2022/07/11 00:02:59;;;;;;;4.50;1.98;;;;;;;;;;5075945;28;20302;-43
2022/07/11 00:05:26;;;;;;;3.20;1.40;;;;;;;;;;5075313;28;20200;-44
2022/07/11 00:07:53;;;;;;;3.72;1.85;;;;;;;;;;5075276;28;20637;-43
2022/07/11 00:10:20;;;;;;;5.80;1.80;;;;;;;;;;5075353;28;20703;-43
2022/07/11 00:12:47;;;;;;;4.38;1.70;;;;;;;;;;5075134;28;20231;-43
2022/07/11 00:15:14;;;;;;;3.53;1.90;;;;;;;;;;5075064;28;20634;-43
2022/07/11 00:17:41;;;;;;;2.95;1.65;;;;;;;;;;5075316;28;20285;-43
2022/07/11 00:20:09;;;;;;;3.05;1.58;;;;;;;;;;5075313;28;20203;-43
2022/07/11 00:22:36;;;;;;;4.28;1.40;;;;;;;;;;5077604;28;20231;-43
2022/07/11 00:25:03;;;;;;;4.10;1.55;;;;;;;;;;5095864;28;20199;-43
2022/07/11 00:27:30;;;;;;;2.83;1.50;;;;;;;;;;5096242;28;20202;-43
2022/07/11 00:29:57;;;;;;;1.77;1.20;;;;;;;;;;5094235;28;20550;-44
2022/07/11 00:32:24;;;;;;;3.17;1.58;;;;;;;;;;5095532;28;20223;-43
2022/07/11 00:34:51;;;;;;;3.95;1.80;;;;;;;;;;5095347;28;20203;-43
2022/07/11 00:37:18;;;;;;;3.05;1.30;;;;;;;;;;5095272;28;20195;-43
2022/07/11 00:39:45;;;;;;;2.67;1.30;;;;;;;;;;5095194;28;20623;-46
2022/07/11 00:42:16;;;;;;;2.03;1.20;;;;;;;;;;5095182;28;20210;-43
2022/07/11 00:44:43;;;;;;;3.30;1.55;;;;;;;;;;5095300;28;20187;-43
2022/07/11 00:47:10;;;;;;;2.63;1.75;;;;;;;;;;5095168;28;20206;-44
2022/07/11 00:49:37;;;;;;;3.60;1.90;;;;;;;;;;5094843;28;20202;-43
2022/07/11 00:52:04;;;;;;;4.18;1.70;;;;;;;;;;5094802;28;20248;-43
2022/07/11 00:54:31;;;;;;;5.13;2.00;;;;;;;;;;5093863;28;20582;-43
2022/07/11 00:56:59;;;;;;;4.72;1.85;;;;;;;;;;5094822;28;20203;-42
2022/07/11 00:59:27;;;;;;;3.13;2.15;;;;;;;;;;5095133;28;20239;-44
2022/07/11 01:01:54;;;;;;;3.90;2.50;;;;;;;;;;5094179;28;20198;-44
2022/07/11 01:04:22;;;;;;;4.38;2.55;;;;;;;;;;5094851;28;20202;-42
2022/07/11 01:06:49;;;;;;;2.95;2.55;;;;;;;;;;5097505;28;20256;-43
2022/07/11 01:09:15;;;;;;;4.72;2.88;;;;;;;;;;5098942;28;20225;-43
2022/07/11 01:11:43;;;;;;;3.55;2.78;;;;;;;;;;5099044;28;20194;-44
2022/07/11 01:14:10;;;;;;;5.25;3.08;;;;;;;;;;5098794;28;20263;-44
2022/07/11 01:16:37;;;;;;;5.10;2.90;;;;;;;;;;5099475;28;20206;-43
2022/07/11 01:19:04;;;;;;;7.30;3.10;;;;;;;;;;5099147;28;20267;-42
2022/07/11 01:21:38;;;;;;;4.95;3.10;;;;;;;;;;5098841;28;20296;-43
2022/07/11 01:24:07;;;;;;;5.95;3.20;;;;;;;;;;5098819;28;20586;-44
2022/07/11 01:26:34;;;;;;;5.78;3.15;;;;;;;;;;5099024;28;20198;-44
2022/07/11 01:29:09;;;;;;;6.22;2.97;;;;;;;;;;5098875;28;20199;-44
2022/07/11 01:31:44;;;;;;;5.25;3.03;;;;;;;;;;5098532;28;20205;-43
2022/07/11 01:34:11;;;;;;;7.18;3.03;;;;;;;;;;5098786;28;20197;-43
2022/07/11 01:36:38;;;;;;;5.00;3.10;;;;;;;;;;5099338;28;20194;-43
2022/07/11 01:39:05;;;;;;;10.30;3.38;;;;;;;;;;5098698;28;20220;-43
2022/07/11 01:41:32;;;;;;;4.90;3.30;;;;;;;;;;5098724;28;20194;-43
2022/07/11 01:44:00;;;;;;;5.78;3.00;;;;;;;;;;5098279;28;20283;-42
2022/07/11 01:46:27;;;;;;;4.78;3.50;;;;;;;;;;5098055;28;20289;-42
2022/07/11 01:48:54;;;;;;;5.07;3.40;;;;;;;;;;5097990;28;20210;-43
2022/07/11 01:51:23;;;;;;;3.60;3.00;;;;;;;;;;5098315;28;20198;-43
2022/07/11 01:53:50;;;;;;;3.50;3.13;;;;;;;;;;5097729;28;20613;-43
2022/07/11 01:56:16;;;;;;;5.13;3.20;;;;;;;;;;5097981;28;20230;-43
2022/07/11 01:58:48;;;;;;;5.22;3.55;;;;;;;;;;5098147;28;20528;-43
2022/07/11 02:01:16;;;;;;;4.88;3.70;;;;;;;;;;5097687;28;20203;-43
2022/07/11 02:03:43;;;;;;;9.85;3.60;;;;;;;;;;5097682;28;20702;-45
2022/07/11 02:06:11;;;;;;;6.55;3.80;;;;;;;;;;5097622;28;20621;-43
2022/07/11 02:08:38;;;;;;;5.22;3.55;;;;;;;;;;5097717;28;20214;-43
2022/07/11 02:11:05;;;;;;;4.78;3.65;;;;;;;;;;5097671;28;20202;-43
2022/07/11 02:13:32;;;;;;;4.65;4.05;;;;;;;;;;5097415;28;20585;-42
2022/07/11 02:15:59;;;;;;;5.05;4.00;;;;;;;;;;5097680;28;20326;-42
2022/07/11 02:18:26;;;;;;;3.92;3.55;;;;;;;;;;5097246;28;20194;-43
2022/07/11 02:20:53;;;;;;;6.18;3.65;;;;;;;;;;5097199;28;20203;-44
2022/07/11 02:23:20;;;;;;;5.45;3.95;;;;;;;;;;5097620;28;20290;-42
2022/07/11 02:25:47;;;;;;;7.20;3.53;;;;;;;;;;5097542;28;20218;-43
2022/07/11 02:28:15;;;;;;;5.15;3.83;;;;;;;;;;5097292;28;20198;-43
2022/07/11 02:30:43;;;;;;;7.60;4.20;;;;;;;;;;5097215;28;20272;-43
2022/07/11 02:33:15;;;;;;;6.07;4.03;;;;;;;;;;5097191;28;20227;-43
2022/07/11 02:35:46;;;;;;;7.47;4.15;;;;;;;;;;5097396;28;20199;-47
2022/07/11 02:38:14;;;;;;;8.57;4.07;;;;;;;;;;5097311;28;20268;-44
2022/07/11 02:40:42;;;;;;;5.57;3.60;;;;;;;;;;5097152;28;20293;-43
2022/07/11 02:43:09;;;;;;;4.50;3.60;;;;;;;;;;5096831;28;20202;-44
2022/07/11 02:45:36;;;;;;;6.70;3.88;;;;;;;;;;5097270;28;20268;-43
2022/07/11 02:48:03;;;;;;;5.50;3.80;;;;;;;;;;5097001;28;20214;-43
2022/07/11 02:50:31;;;;;;;7.88;3.88;;;;;;;;;;5097075;28;20580;-43
2022/07/11 02:52:58;;;;;;;6.05;4.10;;;;;;;;;;5097136;28;20226;-43
2022/07/11 02:55:25;;;;;;;6.30;4.18;;;;;;;;;;5096927;28;20202;-43
2022/07/11 02:57:52;;;;;;;5.95;4.20;;;;;;;;;;5097013;28;20698;-42
2022/07/11 03:00:19;;;;;;;7.85;4.32;;;;;;;;;;5097098;28;20236;-42
2022/07/11 03:02:46;;;;;;;5.15;4.40;;;;;;;;;;5096719;28;20206;-44
2022/07/11 03:05:13;;;;;;;5.30;4.68;;;;;;;;;;5096671;28;20657;-44
2022/07/11 03:07:40;;;;;;;6.72;4.07;;;;;;;;;;5097157;28;20198;-43
2022/07/11 03:10:08;;;;;;;7.30;4.75;;;;;;;;;;5096831;28;20264;-42
2022/07/11 03:12:35;;;;;;;7.50;4.45;;;;;;;;;;5096701;28;20237;-43
2022/07/11 03:15:02;;;;;;;6.22;4.55;;;;;;;;;;5096792;28;20213;-44
2022/07/11 03:17:30;;;;;;;5.68;3.92;;;;;;;;;;5096642;28;20222;-43
2022/07/11 03:19:57;;;;;;;8.45;3.97;;;;;;;;;;5096974;28;20210;-44
2022/07/11 03:22:24;;;;;;;6.63;4.35;;;;;;;;;;5096772;28;20234;-44
2022/07/11 03:24:51;;;;;;;4.53;3.75;;;;;;;;;;5076424;28;20195;-43
2022/07/11 03:27:18;;;;;;;5.63;3.88;;;;;;;;;;5076291;28;20208;-45
2022/07/11 03:29:45;;;;;;;6.78;4.15;;;;;;;;;;5075446;28;20257;-44
2022/07/11 03:32:12;;;;;;;6.30;3.97;;;;;;;;;;5074582;28;20281;-44
2022/07/11 03:34:40;;;;;;;5.57;3.95;;;;;;;;;;5076191;28;20214;-45
2022/07/11 03:37:07;;;;;;;8.32;4.28;;;;;;;;;;5075877;28;20199;-43
2022/07/11 03:39:33;;;;;;;4.13;3.40;;;;;;;;;;5075799;28;20638;-48
2022/07/11 03:42:01;;;;;;;5.65;4.00;;;;;;;;;;5075800;28;20537;-42
2022/07/11 03:44:28;;;;;;;4.93;3.60;;;;;;;;;;5075793;28;20857;-42
2022/07/11 03:46:54;;;;;;;5.60;3.78;;;;;;;;;;5091207;28;20255;-43
2022/07/11 03:49:22;;;;;;;5.35;3.40;;;;;;;;;;5096272;28;20203;-43
2022/07/11 03:51:52;;;;;;;5.55;3.72;;;;;;;;;;5095777;28;20625;-43
2022/07/11 03:54:19;;;;;;;4.97;3.47;;;;;;;;;;5096108;28;20609;-43
2022/07/11 03:56:46;;;;;;;4.90;3.50;;;;;;;;;;5095903;28;20211;-43
2022/07/11 03:59:13;;;;;;;4.55;3.50;;;;;;;;;;5096044;28;20198;-44
2022/07/11 04:01:40;;;;;;;4.85;3.30;;;;;;;;;;5096050;28;20202;-44
2022/07/11 04:04:08;;;;;;;7.20;3.58;;;;;;;;;;5095574;28;20319;-45
2022/07/11 04:06:44;;;;;;;3.65;2.90;;;;;;;;;;5087941;28;20548;-47
2022/07/11 04:09:11;;;;;;;4.43;3.20;;;;;;;;;;5082734;28;20565;-44
2022/07/11 04:11:38;;;;;;;5.20;3.00;;;;;;;;;;5089430;28;20226;-50
2022/07/11 04:14:05;;;;;;;4.00;2.50;;;;;;;;;;5091495;28;20234;-46
2022/07/11 04:16:32;;;;;;;3.88;2.80;;;;;;;;;;5075786;28;20223;-44
2022/07/11 04:18:59;;;;;;;5.93;2.95;;;;;;;;;;5087821;28;20254;-44
2022/07/11 04:21:26;;;;;;;3.45;3.00;;;;;;;;;;5094253;28;20247;-45
2022/07/11 04:23:53;;;;;;;4.82;2.80;;;;;;;;;;5093723;28;20242;-44
2022/07/11 04:26:20;;;;;;;8.15;2.90;;;;;;;;;;5086580;28;20219;-43
2022/07/11 04:28:47;;;;;;;4.82;2.92;;;;;;;;;;5078917;28;20665;-43
2022/07/11 04:31:15;;;;;;;6.72;2.75;;;;;;;;;;5083963;28;20219;-44
2022/07/11 04:33:42;;;;;;;3.90;2.85;;;;;;;;;;5073965;28;20301;-46
2022/07/11 04:36:10;;;;;;;4.95;2.70;;;;;;;;;;5074115;28;20280;-43
2022/07/11 04:38:38;;;;;;;4.57;3.03;;;;;;;;;;5074129;28;20231;-44
2022/07/11 04:41:05;;;;;;;3.40;2.60;;;;;;;;;;5094148;28;20605;-44
2022/07/11 04:43:32;;;;;;;6.30;2.58;;;;;;;;;;5094464;28;20540;-46
2022/07/11 04:46:01;;;;;;;2.55;2.30;;;;;;;;;;5094063;28;20210;-43
2022/07/11 04:48:28;;;;;;;4.78;2.65;;;;;;;;;;5094406;28;20231;-43
2022/07/11 04:50:55;;;;;;;4.38;2.47;;;;;;;;;;5094019;28;20233;-43
2022/07/11 04:53:22;;;;;;;5.07;2.80;;;;;;;;;;5082935;28;20804;-43
2022/07/11 04:55:49;;;;;;;4.82;3.38;;;;;;;;;;5072137;28;20223;-44
2022/07/11 04:58:16;;;;;;;5.85;3.90;;;;;;;;;;5073628;28;20230;-45
2022/07/11 05:00:43;;;;;;;6.35;4.03;;;;;;;;;;5086133;28;20230;-53
2022/07/11 05:03:10;;;;;;;4.82;3.53;;;;;;;;;;5094156;28;20371;-45
2022/07/11 05:05:37;;;;;;;5.20;3.45;;;;;;;;;;5094423;28;20312;-47
2022/07/11 05:08:04;;;;;;;4.38;2.95;;;;;;;;;;5093390;28;20267;-43
2022/07/11 05:10:33;;;;;;;5.25;2.75;;;;;;;;;;5093951;28;20241;-43
2022/07/11 05:13:00;;;;;;;6.50;3.28;;;;;;;;;;5093637;28;20262;-45
2022/07/11 05:15:27;;;;;;;4.32;3.88;;;;;;;;;;5094136;28;20230;-44
2022/07/11 05:17:54;;;;;;;4.35;3.30;;;;;;;;;;5093937;28;20233;-46
2022/07/11 05:20:21;;;;;;;6.25;3.13;;;;;;;;;;5093931;28;20264;-44
2022/07/11 05:22:48;;;;;;;7.60;3.22;;;;;;;;;;5091204;28;20287;-45
2022/07/11 05:25:15;;;;;;;3.28;2.42;;;;;;;;;;5087617;28;20226;-45
2022/07/11 05:27:42;;;;;;;3.20;2.60;;;;;;;;;;5091779;28;20210;-46
2022/07/11 05:30:10;;;;;;;4.97;3.00;;;;;;;;;;5093735;28;20597;-46
2022/07/11 05:32:37;;;;;;;6.15;3.13;;;;;;;;;;5093488;28;20309;-46
2022/07/11 05:35:04;;;;;;;4.03;3.03;;;;;;;;;;5093936;28;20243;-50
2022/07/11 05:37:32;;;;;;;5.18;2.40;;;;;;;;;;5093404;28;20672;-51
2022/07/11 05:39:59;;;;;;;3.83;2.65;;;;;;;;;;5093597;28;20214;-57
2022/07/11 05:42:32;;;;;;;4.97;2.80;;;;;;;;;;5094382;28;20231;-54
2022/07/11 05:44:59;;;;;;;4.75;2.50;;;;;;;;;;5086272;28;20273;-47
2022/07/11 05:47:26;;;;;;;3.33;2.40;;;;;;;;;;5076840;28;20223;-48
2022/07/11 05:49:53;;;;;;;2.92;2.50;;;;;;;;;;5086479;28;20218;-56
2022/07/11 05:52:20;;;;;;;5.50;1.80;;;;;;;;;;5094529;28;20223;-53
2022/07/11 05:54:47;;;;;;;2.35;1.70;;;;;;;;;;5097077;28;20226;-52
2022/07/11 05:57:14;;;;;;;2.75;1.95;;;;;;;;;;5097692;28;20225;-56
2022/07/11 05:59:41;;;;;;;4.72;2.20;;;;;;;;;;5095640;28;20288;-52
2022/07/11 06:02:09;;;;;;;4.03;2.10;;;;;;;;;;5097228;28;20549;-58
2022/07/11 06:04:36;;;;;;;3.63;2.10;;;;;;;;;;5086332;28;20231;-58
2022/07/11 06:07:04;;;;;;;5.03;2.00;;;;;;;;;;5087260;28;20219;-59
2022/07/11 06:09:31;;;;;;;2.90;2.13;;;;;;;;;;5093779;28;20339;-58
2022/07/11 06:11:58;;;;;;;2.85;2.17;;;;;;;;;;5091851;28;20222;-57
2022/07/11 06:14:26;;;;;;;2.88;2.10;;;;;;;;;;5090239;28;20249;-59
2022/07/11 06:16:53;;;;;;;3.20;2.28;;;;;;;;;;5090545;28;20226;-60
2022/07/11 06:19:20;;;;;;;2.55;1.67;;;;;;;;;;5094906;28;20287;-58
2022/07/11 06:21:48;;;;;;;5.07;1.88;;;;;;;;;;5095372;28;20323;-60
2022/07/11 06:24:15;;;;;;;1.98;1.58;;;;;;;;;;5096123;28;20230;-57
2022/07/11 06:26:42;;;;;;;4.20;2.22;;;;;;;;;;5097155;28;20288;-59
2022/07/11 06:29:09;;;;;;;9.48;2.00;;;;;;;;;;5096587;28;20246;-59
2022/07/11 06:31:36;;;;;;;2.30;1.90;;;;;;;;;;5096933;28;20265;-59
2022/07/11 06:34:03;;;;;;;5.00;1.50;;;;;;;;;;5096404;28;20269;-60
2022/07/11 06:36:30;;;;;;;3.17;1.85;;;;;;;;;;5096518;28;20241;-59
2022/07/11 06:38:57;;;;;;;2.67;1.85;;;;;;;;;;5096394;28;20244;-60
2022/07/11 06:41:24;;;;;;;3.75;1.77;;;;;;;;;;5096626;28;20605;-59
2022/07/11 06:43:51;;;;;;;3.25;1.88;;;;;;;;;;5096713;28;20226;-59
2022/07/11 06:46:18;;;;;;;2.08;1.80;;;;;;;;;;5096535;28;20234;-60
2022/07/11 06:48:45;;;;;;;1.85;1.55;;;;;;;;;;5095906;28;20249;-59
2022/07/11 06:51:12;;;;;;;3.42;1.70;;;;;;;;;;5093651;28;20684;-59
2022/07/11 06:53:39;;;;;;;2.30;1.65;;;;;;;;;;5093451;28;20235;-61
2022/07/11 06:56:07;;;;;;;2.10;1.50;;;;;;;;;;5092047;28;20275;-55
2022/07/11 06:58:34;;;;;;;3.83;1.35;;;;;;;;;;5094960;28;20222;-59
2022/07/11 07:01:05;;;;;;;2.05;1.30;;;;;;;;;;5094663;28;20230;-60
2022/07/11 07:03:33;;;;;;;3.90;1.45;;;;;;;;;;5093426;28;20261;-59
2022/07/11 07:06:01;;;;;;;3.10;1.33;;;;;;;;;;5094511;28;20235;-58
2022/07/11 07:08:29;;;;;;;1.85;1.20;;;;;;;;;;5094336;28;20274;-58
2022/07/11 07:10:57;;;;;;;4.20;1.25;;;;;;;;;;5096211;28;20234;-60
2022/07/11 07:13:31;;;;;;;3.17;1.27;;;;;;;;;;5096192;28;20234;-58
2022/07/11 07:15:59;;;;;;;3.53;1.23;;;;;;;;;;5096017;28;20321;-58
2022/07/11 07:18:26;;;;;;;4.68;1.90;;;;;;;;;;5095094;28;20233;-60
2022/07/11 07:20:53;;;;;;;6.05;1.40;;;;;;;;;;5091969;28;20223;-58
2022/07/11 07:23:20;;;;;;;1.35;1.23;;;;;;;;;;5091990;28;20225;-59
2022/07/11 07:25:47;;;;;;;5.07;1.50;;;;;;;;;;5095214;28;20226;-58
2022/07/11 07:28:14;;;;;;;3.10;1.17;;;;;;;;;;5095437;28;20242;-60
2022/07/11 07:30:41;;;;;;;2.88;1.17;;;;;;;;;;5095628;28;20661;-60
2022/07/11 07:33:11;;;;;;;1.58;1.20;;;;;;;;;;5095383;28;20673;-60
2022/07/11 07:35:38;;;;;;;3.50;1.33;;;;;;;;;;5094368;28;20741;-60
2022/07/11 07:38:05;;;;;;;3.40;1.30;;;;;;;;;;5094793;28;20669;-59
2022/07/11 07:40:32;;;;;;;2.67;0.90;;;;;;;;;;5095660;28;20222;-59
2022/07/11 07:43:01;;;;;;;2.65;0.90;;;;;;;;;;5106441;28;20555;-62
2022/07/11 07:45:28;;;;;;;2.13;0.82;;;;;;;;;;5115929;27;20237;-59
2022/07/11 07:47:55;;;;;;;2.03;0.90;;;;;;;;;;5116217;28;20226;-59
2022/07/11 07:50:23;;;;;;;1.70;1.10;;;;;;;;;;5116564;28;20202;-60
2022/07/11 07:52:50;;;;;;;4.00;0.80;;;;;;;;;;5116088;28;20209;-59
2022/07/11 07:55:18;;;;;;;2.35;0.70;;;;;;;;;;5113271;28;20222;-60
2022/07/11 07:57:45;;;;;;;1.63;0.70;;;;;;;;;;5095514;28;20536;-60
2022/07/11 08:03:05;;;;;;;0.60;0.60;;;;;;;;;;5095571;28;20268;-60
2022/07/11 08:05:32;;;;;;;1.92;0.50;;;;;;;;;;5095480;28;20228;-59
2022/07/11 08:07:59;;;;;;;0.73;0.60;;;;;;;;;;5095349;28;20203;-60
2022/07/11 08:10:27;;;;;;;2.85;0.63;;;;;;;;;;5095881;28;20190;-60
2022/07/11 08:12:54;;;;;;;1.02;0.60;;;;;;;;;;5095533;28;20210;-60
2022/07/11 08:15:20;;;;;;;0.95;0.75;;;;;;;;;;5094867;28;20575;-59
2022/07/11 08:17:48;;;;;;;2.22;0.80;;;;;;;;;;5095222;28;20203;-60
2022/07/11 08:20:15;;;;;;;1.38;0.63;;;;;;;;;;5095220;28;20532;-60
2022/07/11 08:22:42;;;;;;;0.65;0.63;;;;;;;;;;5095599;28;20612;-59
2022/07/11 08:25:09;;;;;;;1.05;0.75;;;;;;;;;;5095441;28;20207;-60
2022/07/11 08:27:37;;;;;;;4.85;0.63;;;;;;;;;;5095113;28;20525;-59
2022/07/11 08:30:07;;;;;;;2.67;0.70;;;;;;;;;;5095465;28;20179;-59
2022/07/11 08:32:40;;;;;;;2.10;0.50;;;;;;;;;;5094362;28;20621;-60
2022/07/11 08:35:08;;;;;;;3.22;0.70;;;;;;;;;;5093143;28;20641;-60
2022/07/11 08:37:36;;;;;;;1.27;0.57;;;;;;;;;;5093239;28;20616;-58
2022/07/11 08:40:04;;;;;;;0.68;0.50;;;;;;;;;;5093598;28;20253;-58
2022/07/11 08:42:31;;;;;;;2.97;1.40;;;;;;;;;;5093501;28;20203;-57
2022/07/11 08:44:58;;;;;;;2.10;0.50;;;;;;;;;;5093723;28;20214;-57
2022/07/11 08:47:26;;;;;;;1.40;0.70;;;;;;;;;;5093490;28;20195;-58
2022/07/11 08:49:53;;;;;;;2.05;0.50;;;;;;;;;;5091406;28;20214;-57
2022/07/11 08:52:22;;;;;;;2.60;0.60;;;;;;;;;;5093729;28;20195;-58
2022/07/11 08:54:49;;;;;;;0.80;0.57;;;;;;;;;;5092151;28;20249;-58
2022/07/11 08:57:16;;;;;;;2.15;0.60;;;;;;;;;;5094482;28;20195;-54
2022/07/11 08:59:47;;;;;;;1.58;0.50;;;;;;;;;;5094452;28;20214;-58
2022/07/11 09:02:14;;;;;;;2.38;0.70;;;;;;;;;;5092192;28;20259;-61
2022/07/11 09:04:41;;;;;;;5.30;1.00;;;;;;;;;;5094061;28;20217;-59
2022/07/11 09:07:08;;;;;;;4.53;0.75;;;;;;;;;;5094592;28;20213;-59
2022/07/11 09:09:35;;;;;;;2.15;0.80;;;;;;;;;;5094528;28;20662;-58
2022/07/11 09:12:11;;;;;;;1.92;0.70;;;;;;;;;;5094884;28;20255;-57
2022/07/11 09:14:38;;;;;;;1.38;0.50;;;;;;;;;;5094377;28;20648;-58
2022/07/11 09:17:06;;;;;;;2.60;0.60;;;;;;;;;;5094417;28;20719;-58
2022/07/11 09:19:39;;;;;;;3.55;0.85;;;;;;;;;;5094466;28;20234;-58
2022/07/11 09:27:43;;;;;;;0.82;0.70;;;;;;;;;;5097086;28;20196;-57
2022/07/11 09:30:28;;;;;;;8.50;0.93;;;;;;;;;;5097691;28;20216;-58
2022/07/11 09:32:58;;;;;;;4.20;0.90;;;;;;;;;;5097459;28;20186;-58
2022/07/11 09:35:28;;;;;;;1.52;0.70;;;;;;;;;;5098299;28;20664;-60
2022/07/11 09:37:55;;;;;;;4.95;0.80;;;;;;;;;;5098663;28;20183;-60
2022/07/11 09:40:23;;;;;;;1.73;0.80;;;;;;;;;;5098064;28;20240;-60
2022/07/11 09:42:52;;;;;;;2.42;0.80;;;;;;;;;;5098853;28;20199;-59
2022/07/11 09:45:20;;;;;;;1.30;0.90;;;;;;;;;;5098609;28;20210;-60
2022/07/11 09:47:49;;;;;;;4.50;1.10;;;;;;;;;;5096697;28;20190;-57
2022/07/11 09:50:23;;;;;;;1.40;1.00;;;;;;;;;;5096887;28;20190;-58
2022/07/11 09:53:16;;;;;;;2.20;1.23;;;;;;;;;;5097129;28;20244;-58
2022/07/11 09:55:46;;;;;;;1.65;1.00;;;;;;;;;;5094548;28;20203;-59
2022/07/11 09:58:21;;;;;;;1.75;1.40;;;;;;;;;;5096981;28;20195;-58
2022/07/11 10:00:50;;;;;;;1.88;0.82;;;;;;;;;;5097987;28;20251;-59
2022/07/11 10:03:22;;;;;;;5.68;1.50;;;;;;;;;;5098049;28;20259;-59
2022/07/11 10:06:09;;;;;;;6.65;1.30;;;;;;;;;;5098197;28;20218;-58
2022/07/11 10:08:36;;;;;;;2.35;1.00;;;;;;;;;;5097026;28;20202;-59
2022/07/11 10:11:03;;;;;;;3.13;1.00;;;;;;;;;;5097958;28;20201;-59
2022/07/11 10:13:30;;;;;;;1.30;0.90;;;;;;;;;;5097379;28;20515;-59
2022/07/11 10:15:57;;;;;;;3.80;1.13;;;;;;;;;;5098126;28;20214;-58
2022/07/11 10:18:27;;;;;;;1.40;0.82;;;;;;;;;;5096910;28;20213;-59
2022/07/11 10:21:01;;;;;;;2.47;1.20;;;;;;;;;;5097794;28;20195;-58
2022/07/11 10:23:35;;;;;;;2.72;1.13;;;;;;;;;;5097355;28;20578;-59
2022/07/11 10:26:16;;;;;;;2.65;1.00;;;;;;;;;;5097981;28;20505;-59
2022/07/11 10:28:48;;;;;;;2.72;1.17;;;;;;;;;;5079147;28;20202;-59
2022/07/11 10:31:20;;;;;;;2.58;1.00;;;;;;;;;;5097101;28;20195;-56
2022/07/11 10:34:08;;;;;;;1.90;1.23;;;;;;;;;;5097938;28;20187;-53
2022/07/11 10:36:41;;;;;;;1.77;1.05;;;;;;;;;;5097677;28;20187;-47
2022/07/11 10:39:21;;;;;;;2.70;1.30;;;;;;;;;;5097127;28;20187;-55
2022/07/11 10:41:48;;;;;;;5.72;1.02;;;;;;;;;;5096598;28;20544;-58
2022/07/11 10:44:15;;;;;;;1.38;0.90;;;;;;;;;;5097094;28;20195;-55
2022/07/11 10:46:42;;;;;;;2.97;0.43;;;;;;;;;;5096824;28;20202;-58
2022/07/11 10:49:15;;;;;;;1.13;0.50;;;;;;;;;;5097067;28;20217;-59
2022/07/11 10:51:59;;;;;;;1.70;0.60;;;;;;;;;;5097059;28;20651;-53
2022/07/11 10:54:48;;;;;;;0.80;0.57;;;;;;;;;;5096523;28;20222;-57
2022/07/11 10:57:25;;;;;;;6.45;0.70;;;;;;;;;;5097767;28;20210;-53
2022/07/11 11:00:08;;;;;;;2.20;0.43;;;;;;;;;;5097340;28;20214;-56
2022/07/11 11:03:01;;;;;;;1.13;0.40;;;;;;;;;;5097014;28;20599;-55
2022/07/11 11:05:48;;;;;;;2.45;0.77;;;;;;;;;;5075031;28;20555;-58
2022/07/11 11:08:37;;;;;;;2.22;0.85;;;;;;;;;;5075155;28;20203;-57
2022/07/11 11:11:28;;;;;;;0.82;0.60;;;;;;;;;;5075131;28;20207;-54
2022/07/11 11:14:20;;;;;;;1.10;0.70;;;;;;;;;;5049112;28;20214;-58
2022/07/11 11:16:48;;;;;;;1.13;0.68;;;;;;;;;;5058327;28;20200;-58
2022/07/11 11:19:46;;;;;;;2.00;0.90;;;;;;;;;;5074874;28;20195;-58
2022/07/11 11:22:18;;;;;;;2.45;0.70;;;;;;;;;;5074575;28;20242;-58
2022/07/11 11:24:46;;;;;;;1.83;0.65;;;;;;;;;;5073560;28;20199;-53
2022/07/11 11:27:33;;;;;;;3.30;0.73;;;;;;;;;;5071295;28;20196;-59
2022/07/11 11:30:00;;;;;;;3.45;0.77;;;;;;;;;;5072757;28;20195;-59
2022/07/11 11:32:34;;;;;;;2.75;0.70;;;;;;;;;;5068868;28;20195;-60
2022/07/11 11:35:05;;;;;;;2.40;0.73;;;;;;;;;;5071334;28;20223;-59
2022/07/11 11:37:34;;;;;;;2.25;0.95;;;;;;;;;;5070395;28;20195;-60
2022/07/11 11:40:01;;;;;;;0.50;0.40;;;;;;;;;;5072643;28;20217;-60
2022/07/11 11:42:29;;;;;;;2.75;0.60;;;;;;;;;;5084707;28;20661;-60
2022/07/11 11:45:02;;;;;;;2.72;0.60;;;;;;;;;;5094524;28;20580;-59
2022/07/11 11:47:31;;;;;;;1.70;0.57;;;;;;;;;;5094410;28;20183;-59
2022/07/11 11:49:58;;;;;;;0.73;0.40;;;;;;;;;;5094985;28;20199;-59
2022/07/11 11:52:27;;;;;;;1.02;0.50;;;;;;;;;;5095678;28;20202;-59
2022/07/11 11:54:57;;;;;;;0.90;0.50;;;;;;;;;;5095892;28;20237;-59
2022/07/11 11:57:26;;;;;;;1.30;0.50;;;;;;;;;;5095908;28;20222;-59
2022/07/11 11:59:53;;;;;;;0.93;0.43;;;;;;;;;;5095745;28;20218;-61
2022/07/11 12:02:25;;;;;;;1.08;0.65;;;;;;;;;;5095862;28;20199;-59
2022/07/11 12:04:52;;;;;;;1.02;0.43;;;;;;;;;;5095861;28;20621;-59
2022/07/11 12:07:24;;;;;;;1.95;0.40;;;;;;;;;;5095370;28;20203;-59
2022/07/11 12:09:55;;;;;;;0.38;0.35;;;;;;;;;;5095619;28;20272;-59
2022/07/11 12:12:46;;;;;;;1.45;0.40;;;;;;;;;;5090841;28;20399;-59
2022/07/11 12:15:26;;;;;;;0.52;0.40;;;;;;;;;;5095888;28;20547;-59
2022/07/11 12:17:56;;;;;;;2.42;0.40;;;;;;;;;;5094049;28;20209;-58
2022/07/11 12:20:42;;;;;;;1.77;0.47;;;;;;;;;;5093831;28;20667;-59
2022/07/11 12:23:11;;;;;;;0.98;0.40;;;;;;;;;;5092653;28;20190;-61
2022/07/11 12:25:50;;;;;;;3.30;0.60;;;;;;;;;;5091097;28;20195;-57
2022/07/11 12:28:17;;;;;;;2.17;0.38;;;;;;;;;;5086014;28;20187;-55
2022/07/11 12:30:44;;;;;;;4.53;0.70;;;;;;;;;;5091846;28;20230;-59
2022/07/11 12:33:13;;;;;;;1.50;0.80;;;;;;;;;;5091833;28;20230;-58
2022/07/11 12:36:00;;;;;;;1.55;0.80;;;;;;;;;;5090934;28;20226;-57
2022/07/11 12:38:51;;;;;;;2.63;0.50;;;;;;;;;;5091862;28;20241;-56
2022/07/11 12:41:18;;;;;;;2.00;0.77;;;;;;;;;;5092889;28;20218;-58
2022/07/11 12:46:32;;;;;;;3.30;0.57;;;;;;;;;;5092519;28;20214;-57
2022/07/11 12:49:04;;;;;;;1.27;0.60;;;;;;;;;;5090205;28;20233;-58
2022/07/11 12:51:53;;;;;;;9.35;0.73;;;;;;;;;;5093125;28;20214;-58
2022/07/11 12:54:20;;;;;;;3.17;0.80;;;;;;;;;;5090191;28;20219;-58
2022/07/11 12:56:57;;;;;;;6.95;0.88;;;;;;;;;;5092020;28;20238;-59
2022/07/11 12:59:25;;;;;;;8.95;1.02;;;;;;;;;;5090168;28;20214;-58
2022/07/11 13:02:03;;;;;;;6.88;0.85;;;;;;;;;;5093145;28;20741;-57
2022/07/11 13:04:31;;;;;;;1.13;0.65;;;;;;;;;;5094130;28;20237;-57
2022/07/11 13:09:44;;;;;;;4.32;0.70;;;;;;;;;;5074019;28;20275;-59
2022/07/11 13:12:11;;;;;;;0.50;0.50;;;;;;;;;;5080208;28;20522;-59
2022/07/11 13:17:24;;;;;;;1.08;0.70;;;;;;;;;;5093276;28;20237;-59
2022/07/11 13:19:51;;;;;;;1.20;0.80;;;;;;;;;;5094017;28;20321;-59
2022/07/11 13:22:18;;;;;;;2.42;0.80;;;;;;;;;;5093920;28;20317;-59
2022/07/11 13:24:45;;;;;;;3.55;0.88;;;;;;;;;;5094006;28;20218;-59
2022/07/11 13:27:12;;;;;;;2.70;0.65;;;;;;;;;;5093820;28;20273;-59
2022/07/11 13:29:39;;;;;;;2.30;0.90;;;;;;;;;;5093420;28;20592;-59
2022/07/11 13:32:07;;;;;;;1.75;0.90;;;;;;;;;;5091820;28;20294;-59
2022/07/11 13:34:34;;;;;;;3.25;0.75;;;;;;;;;;5088789;28;20218;-59
2022/07/11 13:37:01;;;;;;;1.15;0.80;;;;;;;;;;5093371;28;20581;-58
2022/07/11 13:39:28;;;;;;;1.27;0.90;;;;;;;;;;5092940;28;20734;-59
2022/07/11 13:41:54;;;;;;;4.32;0.77;;;;;;;;;;5093433;27;20233;-58
2022/07/11 13:44:21;;;;;;;2.13;0.80;;;;;;;;;;5092577;28;20688;-60
2022/07/11 13:46:49;;;;;;;3.45;1.00;;;;;;;;;;5093621;28;20256;-58
2022/07/11 13:49:16;;;;;;;1.10;1.00;;;;;;;;;;5092464;28;20222;-59
2022/07/11 13:51:43;;;;;;;2.20;0.73;;;;;;;;;;5093485;28;20223;-60
2022/07/11 13:54:10;;;;;;;6.53;1.17;;;;;;;;;;5093551;28;20223;-62
2022/07/11 13:56:37;;;;;;;3.20;0.80;;;;;;;;;;5093525;28;20238;-58
2022/07/11 13:59:04;;;;;;;1.42;0.85;;;;;;;;;;5093434;28;20223;-60
2022/07/11 14:01:31;;;;;;;1.05;0.80;;;;;;;;;;5093493;28;20226;-59
2022/07/11 14:03:58;;;;;;;1.35;0.98;;;;;;;;;;5093860;28;20223;-59
2022/07/11 14:06:25;;;;;;;1.65;0.70;;;;;;;;;;5093093;28;20468;-58
2022/07/11 14:09:13;;;;;;;3.10;0.75;;;;;;;;;;5092896;28;20257;-60
2022/07/11 14:11:40;;;;;;;0.98;0.57;;;;;;;;;;5093284;28;20222;-59
2022/07/11 14:14:07;;;;;;;3.03;1.27;;;;;;;;;;5094271;28;20613;-64
2022/07/11 14:16:34;;;;;;;2.47;1.05;;;;;;;;;;5096671;28;20673;-59
2022/07/11 14:19:04;;;;;;;1.52;0.90;;;;;;;;;;5096354;28;20241;-59
2022/07/11 14:21:31;;;;;;;2.40;0.80;;;;;;;;;;5094403;28;20611;-59
2022/07/11 14:23:58;;;;;;;1.50;0.60;;;;;;;;;;5089047;28;20222;-58
2022/07/11 14:26:25;;;;;;;1.17;0.68;;;;;;;;;;5096024;28;20230;-59
2022/07/11 14:28:53;;;;;;;1.45;0.70;;;;;;;;;;5092985;28;20280;-59
2022/07/11 14:31:22;;;;;;;0.60;0.60;;;;;;;;;;5096498;28;20230;-58
2022/07/11 14:33:50;;;;;;;0.82;0.45;;;;;;;;;;5095058;28;20230;-60
2022/07/11 14:36:17;;;;;;;0.68;0.40;;;;;;;;;;5091830;28;20233;-58
2022/07/11 14:38:45;;;;;;;2.47;0.32;;;;;;;;;;5096216;28;20260;-59
2022/07/11 14:41:13;;;;;;;0.85;0.30;;;;;;;;;;5096642;28;20314;-58
2022/07/11 14:43:40;;;;;;;0.50;0.30;;;;;;;;;;5091568;28;20231;-59
2022/07/11 14:46:07;;;;;;;0.32;0.32;;;;;;;;;;5088933;28;20252;-56
2022/07/11 14:48:34;;;;;;;0.82;0.50;;;;;;;;;;5096505;28;20322;-58
2022/07/11 14:51:01;;;;;;;0.75;0.47;;;;;;;;;;5096756;28;20234;-58
2022/07/11 14:53:29;;;;;;;0.68;0.45;;;;;;;;;;5096204;28;20287;-58
2022/07/11 14:55:56;;;;;;;1.08;0.47;;;;;;;;;;5096538;28;20230;-57
2022/07/11 14:58:43;;;;;;;1.75;0.63;;;;;;;;;;5095687;28;20230;-58
2022/07/11 15:01:10;;;;;;;1.63;0.80;;;;;;;;;;5096408;28;20222;-57
2022/07/11 15:03:37;;;;;;;0.77;0.65;;;;;;;;;;5096104;28;20628;-56
2022/07/11 15:06:06;;;;;;;3.83;0.82;;;;;;;;;;5096330;28;20237;-54
2022/07/11 15:14:05;;;;;;;1.50;0.90;;;;;;;;;;5095942;28;20664;-57
2022/07/11 15:16:33;;;;;;;1.80;0.82;;;;;;;;;;5095925;28;20257;-60